Time;durP1;ratioP1;P1;durP2;ratioP2;P2;SDS_P1;SDS_P2;PMS_P1;PMS_P2;Temp;Humidity;BMP_temperature;BMP_pressure;BME280_temperature;BME280_humidity;BME280_pressure;Samples;Min_cycle;Max_cycle;Signal;HPM_P1;HPM_P2
2023/10/07 00:02:52;;;;;;;9.38;5.07;;;12.10;99.90;;;;;;5066966;28;20028;-86
2023/10/07 00:05:26;;;;;;;9.73;4.93;;;12.10;99.90;;;;;;5068578;28;20021;-86
2023/10/07 00:07:55;;;;;;;8.70;4.70;;;12.10;99.90;;;;;;5066623;28;20036;-79
2023/10/07 00:10:25;;;;;;;9.80;4.55;;;12.00;99.90;;;;;;5064094;28;20497;-86
2023/10/07 00:12:52;;;;;;;7.40;3.80;;;12.10;99.90;;;;;;5065934;28;20023;-87
2023/10/07 00:15:21;;;;;;;8.50;3.72;;;12.00;99.90;;;;;;5058659;28;20021;-79
2023/10/07 00:17:47;;;;;;;6.45;3.25;;;12.10;99.90;;;;;;5065298;28;20061;-87
2023/10/07 00:20:17;;;;;;;7.43;3.60;;;12.10;99.90;;;;;;5052582;28;20036;-87
2023/10/07 00:22:48;;;;;;;7.00;4.05;;;12.10;99.90;;;;;;5055593;28;20116;-78
2023/10/07 00:25:19;;;;;;;5.57;3.17;;;12.20;99.90;;;;;;5070142;28;20108;-86
2023/10/07 00:27:48;;;;;;;8.45;3.40;;;12.20;99.90;;;;;;5062354;28;20021;-79
2023/10/07 00:30:22;;;;;;;8.02;2.90;;;12.10;99.90;;;;;;5060747;28;20074;-85
2023/10/07 00:32:50;;;;;;;8.48;4.82;;;12.10;99.90;;;;;;5067761;28;20017;-86
2023/10/07 00:35:20;;;;;;;10.93;7.05;;;12.10;99.90;;;;;;5069816;28;20028;-79
2023/10/07 00:37:46;;;;;;;7.10;3.83;;;12.10;99.90;;;;;;5059856;28;20079;-87
2023/10/07 00:40:15;;;;;;;6.47;3.88;;;12.00;99.90;;;;;;5056842;28;20482;-86
2023/10/07 00:42:44;;;;;;;7.68;3.38;;;12.10;99.90;;;;;;5052687;28;20025;-79
2023/10/07 00:45:20;;;;;;;6.80;3.20;;;12.00;99.90;;;;;;5052134;28;20024;-79
2023/10/07 00:47:49;;;;;;;6.82;3.60;;;11.90;99.90;;;;;;5052401;28;20032;-86
2023/10/07 00:50:16;;;;;;;6.30;3.22;;;11.90;99.90;;;;;;5056173;28;20101;-79
2023/10/07 00:55:29;;;;;;;7.60;3.22;;;11.90;99.90;;;;;;5056346;28;20028;-79
2023/10/07 00:58:18;;;;;;;5.50;3.00;;;11.90;99.90;;;;;;5056615;28;20486;-86
2023/10/07 01:00:49;;;;;;;8.70;6.88;;;11.90;99.90;;;;;;5055458;28;20021;-79
2023/10/07 01:03:23;;;;;;;6.70;3.60;;;11.80;99.90;;;;;;5051998;28;20013;-78
2023/10/07 01:06:10;;;;;;;5.78;3.67;;;11.80;99.90;;;;;;5055716;28;20056;-79
2023/10/07 01:08:45;;;;;;;9.50;3.25;;;11.80;99.90;;;;;;5054284;28;20021;-79
2023/10/07 01:13:50;;;;;;;4.90;3.00;;;11.80;99.90;;;;;;5055151;28;20029;-87
2023/10/07 01:19:19;;;;;;;5.97;3.70;;;11.90;99.90;;;;;;5064703;28;20068;-87
2023/10/07 01:21:56;;;;;;;5.80;3.05;;;11.80;99.90;;;;;;5055629;28;20127;-79
2023/10/07 01:24:49;;;;;;;6.60;3.83;;;11.80;99.90;;;;;;5050358;28;20467;-78
2023/10/07 01:32:48;;;;;;;9.95;3.90;;;11.80;99.90;;;;;;5051841;28;20033;-78
2023/10/07 01:35:24;;;;;;;7.68;3.40;;;11.80;99.90;;;;;;5051718;28;20020;-80
2023/10/07 01:37:59;;;;;;;7.93;3.10;;;11.80;99.90;;;;;;5052891;28;20020;-78
2023/10/07 01:40:27;;;;;;;7.93;3.67;;;11.80;99.90;;;;;;5049749;28;20043;-79
2023/10/07 01:42:53;;;;;;;5.80;3.42;;;11.80;99.90;;;;;;5051017;28;20029;-78
2023/10/07 01:45:22;;;;;;;5.80;3.75;;;11.80;99.90;;;;;;5055135;28;20028;-78
2023/10/07 01:47:49;;;;;;;6.53;4.97;;;11.80;99.90;;;;;;5070258;28;20026;-79
2023/10/07 01:50:18;;;;;;;9.27;3.95;;;11.80;99.90;;;;;;5054733;28;20021;-86
2023/10/07 01:52:48;;;;;;;8.05;4.05;;;11.80;99.90;;;;;;5053426;28;20052;-85
2023/10/07 01:55:14;;;;;;;5.40;3.25;;;11.80;99.90;;;;;;5070756;28;20103;-78
2023/10/07 01:57:41;;;;;;;6.22;3.25;;;11.90;99.90;;;;;;5059855;28;20052;-78
2023/10/07 02:00:11;;;;;;;8.27;3.13;;;11.90;99.90;;;;;;5052244;28;20063;-85
2023/10/07 02:02:48;;;;;;;7.95;4.30;;;11.90;99.90;;;;;;5069063;28;20051;-79
2023/10/07 02:05:15;;;;;;;7.28;3.60;;;11.90;99.90;;;;;;5059098;28;20028;-85
2023/10/07 02:07:43;;;;;;;8.57;3.33;;;11.90;99.90;;;;;;5068713;28;20024;-85
2023/10/07 02:10:12;;;;;;;6.57;3.55;;;11.90;99.90;;;;;;5065851;28;20033;-86
2023/10/07 02:12:39;;;;;;;8.80;4.97;;;12.00;99.90;;;;;;5066438;28;20024;-85
2023/10/07 02:15:19;;;;;;;9.15;4.13;;;12.00;99.90;;;;;;5057781;28;20482;-85
2023/10/07 02:17:47;;;;;;;17.02;9.80;;;12.00;99.90;;;;;;5057961;28;20036;-85
2023/10/07 02:20:22;;;;;;;89.90;47.13;;;12.00;99.90;;;;;;5067185;28;20031;-79
2023/10/07 02:22:48;;;;;;;27.33;13.90;;;12.00;99.90;;;;;;5045003;28;20514;-80
2023/10/07 02:25:20;;;;;;;12.57;6.95;;;12.10;99.90;;;;;;5054223;28;20025;-80
2023/10/07 02:27:48;;;;;;;10.13;4.88;;;12.00;99.90;;;;;;5054485;28;20081;-88
2023/10/07 02:30:19;;;;;;;9.25;3.72;;;12.10;99.90;;;;;;5050704;28;20097;-80
2023/10/07 02:32:48;;;;;;;9.85;4.43;;;12.10;99.90;;;;;;5053920;28;20115;-80
2023/10/07 02:35:19;;;;;;;10.70;5.18;;;12.20;99.90;;;;;;5052978;28;20147;-79
2023/10/07 02:37:49;;;;;;;11.52;6.38;;;12.20;99.90;;;;;;5061669;28;20024;-87
2023/10/07 02:40:35;;;;;;;10.43;4.07;;;12.20;99.90;;;;;;5065500;28;20051;-86
2023/10/07 02:43:10;;;;;;;8.80;4.93;;;12.30;99.90;;;;;;5070433;28;20016;-86
2023/10/07 02:45:39;;;;;;;6.07;3.78;;;12.30;99.90;;;;;;5063181;28;20105;-87
2023/10/07 02:48:10;;;;;;;9.60;4.20;;;12.40;99.90;;;;;;5059375;28;20367;-80
2023/10/07 02:50:44;;;;;;;10.05;3.80;;;12.40;99.90;;;;;;5033416;28;20037;-87
2023/10/07 02:53:13;;;;;;;9.32;3.72;;;12.40;99.90;;;;;;5049271;28;20028;-81
2023/10/07 02:58:48;;;;;;;6.47;3.50;;;12.40;99.90;;;;;;5049244;28;20472;-87
2023/10/07 03:01:18;;;;;;;10.85;4.05;;;12.40;99.90;;;;;;5054759;28;20036;-80
2023/10/07 03:03:50;;;;;;;7.65;3.92;;;12.30;99.90;;;;;;5051766;28;20632;-80
2023/10/07 03:06:18;;;;;;;10.53;4.07;;;12.40;99.90;;;;;;5054436;28;20016;-87
2023/10/07 03:08:59;;;;;;;5.40;3.42;;;12.30;99.90;;;;;;5052777;28;20025;-80
2023/10/07 03:11:39;;;;;;;12.30;4.15;;;12.30;99.90;;;;;;5050711;28;20033;-80
2023/10/07 03:14:05;;;;;;;9.35;3.80;;;12.40;99.90;;;;;;5051063;28;20099;-80
2023/10/07 03:16:43;;;;;;;10.98;4.35;;;12.30;99.90;;;;;;5049018;28;20051;-87
2023/10/07 03:19:20;;;;;;;8.85;3.88;;;12.40;99.90;;;;;;5058806;28;20044;-87
2023/10/07 03:24:28;;;;;;;5.78;4.40;;;12.40;99.90;;;;;;5060246;28;20099;-87
2023/10/07 03:27:05;;;;;;;7.85;4.25;;;12.40;99.90;;;;;;5057558;28;20520;-87
2023/10/07 03:29:37;;;;;;;8.18;4.05;;;12.40;99.90;;;;;;5056403;28;20477;-80
2023/10/07 03:32:12;;;;;;;9.00;3.63;;;12.40;99.90;;;;;;5059761;28;20032;-80
2023/10/07 03:34:45;;;;;;;8.82;4.82;;;12.40;99.90;;;;;;5058113;28;20100;-80
2023/10/07 03:39:56;;;;;;;6.93;3.83;;;12.40;99.90;;;;;;5057618;28;20053;-87
2023/10/07 03:42:23;;;;;;;10.30;4.20;;;12.50;99.90;;;;;;5056067;28;20051;-87
2023/10/07 03:44:49;;;;;;;8.77;4.22;;;12.50;99.90;;;;;;5056140;28;20564;-80
2023/10/07 03:47:15;;;;;;;9.18;4.35;;;12.50;99.90;;;;;;5054667;28;20100;-80
2023/10/07 03:49:42;;;;;;;9.10;4.30;;;12.50;99.90;;;;;;5054774;28;20394;-87
2023/10/07 03:52:12;;;;;;;7.30;4.10;;;12.50;99.90;;;;;;5053161;28;20482;-87
2023/10/07 03:54:41;;;;;;;10.73;4.20;;;12.50;99.90;;;;;;5069312;28;20025;-87
2023/10/07 03:57:08;;;;;;;9.48;4.57;;;12.50;99.90;;;;;;5072860;28;20068;-88
2023/10/07 03:59:37;;;;;;;12.00;4.50;;;12.50;99.90;;;;;;5055980;28;20481;-80
2023/10/07 04:04:58;;;;;;;9.82;4.63;;;12.50;99.90;;;;;;5054505;28;20094;-87
2023/10/07 04:07:26;;;;;;;7.95;4.75;;;12.50;99.90;;;;;;5053826;28;20017;-87
2023/10/07 04:09:52;;;;;;;10.98;4.15;;;12.50;99.90;;;;;;5053249;28;20029;-80
2023/10/07 04:12:17;;;;;;;10.43;4.57;;;12.50;99.90;;;;;;5054429;28;20052;-86
2023/10/07 04:14:43;;;;;;;33.63;18.00;;;12.50;99.90;;;;;;5054364;28;20056;-80
2023/10/07 04:17:12;;;;;;;150.27;66.72;;;12.50;99.90;;;;;;5054420;28;20612;-87
2023/10/07 04:19:40;;;;;;;196.45;83.93;;;12.50;99.90;;;;;;5054474;28;20017;-80
2023/10/07 04:22:08;;;;;;;269.92;117.20;;;12.50;99.90;;;;;;5052932;28;20394;-80
2023/10/07 04:24:38;;;;;;;96.03;32.22;;;12.50;99.90;;;;;;5054469;28;20066;-80
2023/10/07 04:27:03;;;;;;;66.65;22.05;;;12.50;99.90;;;;;;5053981;28;20028;-87
2023/10/07 04:29:33;;;;;;;37.40;13.52;;;12.50;99.90;;;;;;5041706;28;20009;-87
2023/10/07 04:32:13;;;;;;;83.30;32.78;;;12.50;99.90;;;;;;5067555;28;20575;-80
2023/10/07 04:35:00;;;;;;;469.35;199.77;;;12.50;99.90;;;;;;5072261;28;20463;-80
2023/10/07 04:37:38;;;;;;;142.00;48.65;;;12.50;99.90;;;;;;5065782;28;20024;-80
2023/10/07 04:42:59;;;;;;;57.97;16.15;;;12.50;99.90;;;;;;5055410;28;20104;-87
2023/10/07 04:45:36;;;;;;;31.40;9.80;;;12.60;99.90;;;;;;5054735;28;20402;-80
2023/10/07 04:48:23;;;;;;;30.00;13.10;;;12.50;99.90;;;;;;5062563;28;20112;-87
2023/10/07 04:51:03;;;;;;;121.22;48.10;;;12.50;99.90;;;;;;5063290;28;20047;-81
2023/10/07 04:53:38;;;;;;;120.72;39.67;;;12.50;99.90;;;;;;5071759;28;20021;-87
2023/10/07 04:56:09;;;;;;;43.47;13.57;;;12.50;99.90;;;;;;5073054;28;20044;-87
2023/10/07 04:58:39;;;;;;;29.88;9.77;;;12.50;99.90;;;;;;5059536;28;20044;-87
2023/10/07 05:01:22;;;;;;;35.35;9.77;;;12.50;99.90;;;;;;5072025;28;20017;-79
2023/10/07 05:03:55;;;;;;;;;;;12.50;99.90;;;;;;5072835;28;20033;-87
2023/10/07 05:06:27;;;;;;;21.45;8.15;;;12.60;99.90;;;;;;5053639;28;19905;-80
2023/10/07 05:08:52;;;;;;;73.80;34.35;;;12.60;99.90;;;;;;5064959;28;20017;-80
2023/10/07 05:11:18;;;;;;;129.00;53.70;;;12.60;99.90;;;;;;5052116;28;20036;-88
2023/10/07 05:13:46;;;;;;;79.50;24.35;;;12.60;99.90;;;;;;5052279;28;20107;-81
2023/10/07 05:16:13;;;;;;;37.88;11.88;;;12.60;99.90;;;;;;5052509;28;20033;-88
2023/10/07 05:18:39;;;;;;;20.98;8.68;;;12.60;99.90;;;;;;5053351;28;20052;-80
2023/10/07 05:21:06;;;;;;;20.80;7.35;;;12.60;99.90;;;;;;5054597;28;20016;-87
2023/10/07 05:23:36;;;;;;;28.13;10.52;;;12.60;99.90;;;;;;5052408;28;20021;-80
2023/10/07 05:26:09;;;;;;;20.85;8.52;;;12.60;99.90;;;;;;5069470;28;20464;-81
2023/10/07 05:28:35;;;;;;;13.73;6.75;;;12.70;99.90;;;;;;5053374;28;20539;-87
2023/10/07 05:31:05;;;;;;;22.20;12.73;;;12.70;99.90;;;;;;5052689;28;20072;-88
2023/10/07 05:33:35;;;;;;;45.10;23.40;;;12.70;99.90;;;;;;5053378;28;20390;-80
2023/10/07 05:36:14;;;;;;;50.63;16.23;;;12.70;99.90;;;;;;5054229;28;20366;-87
2023/10/07 05:38:40;;;;;;;21.77;7.75;;;12.70;99.90;;;;;;5053865;28;20037;-80
2023/10/07 05:41:12;;;;;;;16.80;7.05;;;12.70;99.90;;;;;;5050854;28;20546;-80
2023/10/07 05:43:44;;;;;;;13.13;6.53;;;12.80;99.90;;;;;;5054180;28;20375;-88
2023/10/07 05:46:11;;;;;;;10.45;6.05;;;12.80;99.90;;;;;;5054657;28;20025;-87
2023/10/07 05:48:38;;;;;;;11.27;5.60;;;12.80;99.90;;;;;;5053121;28;20024;-87
2023/10/07 05:51:08;;;;;;;11.52;5.72;;;12.80;99.90;;;;;;5065702;28;20067;-80
2023/10/07 05:53:48;;;;;;;12.57;6.40;;;12.80;99.90;;;;;;5057467;28;20013;-88
2023/10/07 05:56:15;;;;;;;24.00;11.73;;;12.80;99.90;;;;;;5053151;28;20025;-88
2023/10/07 05:58:41;;;;;;;17.17;7.45;;;12.80;99.90;;;;;;5064257;28;20032;-88
2023/10/07 06:01:14;;;;;;;12.45;6.43;;;12.80;99.90;;;;;;5051496;28;20032;-89
2023/10/07 06:03:40;;;;;;;12.13;6.47;;;12.90;99.90;;;;;;5052750;28;20560;-80
2023/10/07 06:06:06;;;;;;;11.35;6.10;;;12.90;99.90;;;;;;5054780;28;20055;-81
2023/10/07 06:08:32;;;;;;;8.20;4.78;;;13.00;99.90;;;;;;5069608;28;20032;-80
2023/10/07 06:11:00;;;;;;;10.13;4.63;;;13.10;99.90;;;;;;5063485;28;20044;-88
2023/10/07 06:13:28;;;;;;;8.98;4.75;;;13.20;99.90;;;;;;5068883;28;20028;-88
2023/10/07 06:15:58;;;;;;;10.20;6.50;;;13.40;99.90;;;;;;5057607;28;20094;-88
2023/10/07 06:18:24;;;;;;;13.15;6.47;;;13.50;97.90;;;;;;5056321;28;20021;-88
2023/10/07 06:20:51;;;;;;;15.10;6.50;;;13.70;97.70;;;;;;5055033;28;20040;-88
2023/10/07 06:23:18;;;;;;;10.32;5.60;;;13.70;97.10;;;;;;5063772;28;20025;-88
2023/10/07 06:25:50;;;;;;;11.75;5.20;;;13.70;96.10;;;;;;5061415;28;20390;-89
2023/10/07 06:29:06;;;;;;;11.55;5.07;;;13.70;94.30;;;;;;5061055;28;20114;-88
2023/10/07 06:31:12;;;;;;;8.77;4.68;;;13.70;95.60;;;;;;5060350;28;20140;-89
2023/10/07 06:33:39;;;;;;;11.27;4.97;;;13.60;95.20;;;;;;5058127;28;20451;-88
2023/10/07 06:36:07;;;;;;;15.15;5.32;;;13.60;96.50;;;;;;5059435;28;20021;-88
2023/10/07 06:38:33;;;;;;;8.50;4.82;;;13.60;96.20;;;;;;5057256;28;20498;-88
2023/10/07 06:40:59;;;;;;;8.38;5.07;;;13.60;97.70;;;;;;5062065;28;20053;-89
2023/10/07 06:43:25;;;;;;;13.02;5.95;;;13.60;98.30;;;;;;5051226;28;20435;-89
2023/10/07 06:45:54;;;;;;;10.85;5.78;;;13.60;97.40;;;;;;5055003;28;20032;-89
2023/10/07 06:48:24;;;;;;;10.15;4.70;;;13.60;97.50;;;;;;5064067;28;20016;-89
2023/10/07 06:50:52;;;;;;;11.75;4.55;;;13.60;98.30;;;;;;5054166;28;20403;-88
2023/10/07 06:53:22;;;;;;;12.40;5.20;;;13.60;97.50;;;;;;5056173;28;20017;-88
2023/10/07 06:55:52;;;;;;;10.23;5.07;;;13.60;98.10;;;;;;5055830;28;20036;-81
2023/10/07 06:58:22;;;;;;;10.95;5.70;;;13.70;99.90;;;;;;5055183;28;20021;-88
2023/10/07 07:01:09;;;;;;;9.32;4.82;;;13.70;99.30;;;;;;5061668;28;20052;-88
2023/10/07 07:03:34;;;;;;;8.50;4.38;;;13.80;99.10;;;;;;5059917;28;20055;-88
2023/10/07 07:06:03;;;;;;;8.82;4.03;;;13.80;98.40;;;;;;5064742;28;20016;-88
2023/10/07 07:08:34;;;;;;;7.97;3.95;;;13.80;98.20;;;;;;5057052;28;20087;-89
2023/10/07 07:11:09;;;;;;;11.98;5.35;;;14.00;97.00;;;;;;5053446;28;20364;-81
2023/10/07 07:13:35;;;;;;;10.60;5.05;;;14.10;97.70;;;;;;5053576;28;20595;-87
2023/10/07 07:16:06;;;;;;;9.73;5.25;;;14.10;95.80;;;;;;5068685;28;20029;-81
2023/10/07 07:18:39;;;;;;;11.45;5.60;;;14.10;94.10;;;;;;5065087;28;20025;-87
2023/10/07 07:23:51;;;;;;;15.90;5.38;;;14.20;97.10;;;;;;5061693;28;20397;-81
2023/10/07 07:26:21;;;;;;;10.35;4.50;;;14.30;97.40;;;;;;5059000;28;20055;-88
2023/10/07 07:28:47;;;;;;;13.55;5.15;;;14.30;95.00;;;;;;5061762;28;20032;-81
2023/10/07 07:31:19;;;;;;;10.40;5.97;;;14.40;95.50;;;;;;5066648;28;20025;-80
2023/10/07 07:33:50;;;;;;;10.35;4.70;;;14.40;94.90;;;;;;5064829;28;20025;-88
2023/10/07 07:36:37;;;;;;;7.53;4.43;;;14.50;95.10;;;;;;5060440;28;20038;-88
2023/10/07 07:39:09;;;;;;;12.55;5.00;;;14.50;96.30;;;;;;5060302;28;20140;-89
2023/10/07 07:41:38;;;;;;;10.73;4.75;;;14.60;95.80;;;;;;5063538;28;20016;-81
2023/10/07 07:44:11;;;;;;;10.63;5.25;;;14.60;97.90;;;;;;5061063;28;20040;-81
2023/10/07 07:49:35;;;;;;;8.90;5.05;;;14.60;96.00;;;;;;5054435;28;20040;-81
2023/10/07 07:52:01;;;;;;;8.57;5.15;;;14.70;96.00;;;;;;5053687;28;20037;-81
2023/10/07 07:54:29;;;;;;;12.02;4.85;;;14.80;96.00;;;;;;5053536;28;20032;-89
2023/10/07 07:56:55;;;;;;;13.30;5.03;;;14.90;96.90;;;;;;5054262;28;20382;-81
2023/10/07 07:59:21;;;;;;;9.82;5.05;;;14.90;97.30;;;;;;5055270;28;20474;-81
2023/10/07 08:02:01;;;;;;;9.57;4.93;;;15.00;95.40;;;;;;5063396;28;20443;-81
2023/10/07 08:04:39;;;;;;;10.52;5.05;;;15.00;94.70;;;;;;5054571;28;20023;-81
2023/10/07 08:07:18;;;;;;;10.23;5.22;;;15.10;95.10;;;;;;5053812;28;20021;-81
2023/10/07 08:09:46;;;;;;;9.10;5.10;;;15.10;94.70;;;;;;5055531;28;20071;-88
2023/10/07 08:12:18;;;;;;;7.03;4.30;;;15.20;94.70;;;;;;5053597;28;20028;-81
2023/10/07 08:14:46;;;;;;;8.50;4.53;;;15.20;93.70;;;;;;5055048;28;20478;-81
2023/10/07 08:17:12;;;;;;;11.90;4.45;;;15.30;93.40;;;;;;5060161;28;20021;-89
2023/10/07 08:19:38;;;;;;;11.70;5.03;;;15.40;94.30;;;;;;5055025;28;20017;-81
2023/10/07 08:22:12;;;;;;;11.15;4.72;;;15.50;94.20;;;;;;5055583;28;20100;-89
2023/10/07 08:24:39;;;;;;;9.00;4.32;;;15.60;92.50;;;;;;5055295;28;20017;-88
2023/10/07 08:27:43;;;;;;;11.18;5.30;;;15.70;94.50;;;;;;5055837;28;20108;-81
2023/10/07 08:29:54;;;;;;;11.27;4.55;;;15.80;91.20;;;;;;5054814;28;20029;-81
2023/10/07 08:32:35;;;;;;;11.32;4.53;;;15.90;92.50;;;;;;5052973;28;20095;-82
2023/10/07 08:35:14;;;;;;;6.90;4.43;;;16.00;90.50;;;;;;5042807;28;20026;-81
2023/10/07 08:37:45;;;;;;;10.70;4.78;;;16.10;90.00;;;;;;5043196;28;20151;-89
2023/10/07 08:40:29;;;;;;;10.68;4.55;;;16.20;89.90;;;;;;5053427;28;20045;-81
2023/10/07 08:42:58;;;;;;;8.75;4.22;;;16.30;90.50;;;;;;5054540;28;20017;-82
2023/10/07 08:45:30;;;;;;;8.98;4.75;;;16.40;87.80;;;;;;5055172;28;20111;-81
2023/10/07 08:48:15;;;;;;;7.53;4.35;;;16.50;87.80;;;;;;5054536;28;20028;-81
2023/10/07 08:51:10;;;;;;;8.45;4.32;;;16.50;87.60;;;;;;5061424;28;20119;-81
2023/10/07 08:53:28;;;;;;;5.43;3.80;;;16.60;88.10;;;;;;5054314;28;20510;-90
2023/10/07 08:55:57;;;;;;;9.55;4.45;;;16.50;87.30;;;;;;5057097;28;20028;-81
2023/10/07 08:58:27;;;;;;;10.45;3.85;;;16.50;86.40;;;;;;5053790;28;20023;-90
2023/10/07 09:00:55;;;;;;;8.25;3.83;;;16.60;87.80;;;;;;5060545;28;20024;-88
2023/10/07 09:03:26;;;;;;;7.07;4.55;;;16.80;87.70;;;;;;5052476;28;20017;-82
2023/10/07 09:05:53;;;;;;;7.95;4.03;;;16.80;87.20;;;;;;5056388;28;20035;-82
2023/10/07 09:08:22;;;;;;;7.50;4.63;;;16.80;86.80;;;;;;5069425;28;20055;-90
2023/10/07 09:10:51;;;;;;;8.02;3.83;;;16.80;87.40;;;;;;5059535;28;20063;-81
2023/10/07 09:13:27;;;;;;;4.72;3.20;;;16.90;88.80;;;;;;5073298;28;20024;-89
2023/10/07 09:15:59;;;;;;;8.07;3.88;;;16.90;88.10;;;;;;5062143;28;20377;-82
2023/10/07 09:18:48;;;;;;;6.88;3.70;;;17.00;89.50;;;;;;5068299;28;20021;-89
2023/10/07 09:21:19;;;;;;;6.85;3.67;;;17.10;87.10;;;;;;5051125;28;20020;-82
2023/10/07 09:24:01;;;;;;;5.47;3.50;;;17.20;87.70;;;;;;5065887;28;20028;-82
2023/10/07 09:26:33;;;;;;;8.93;3.75;;;17.30;85.20;;;;;;5055566;28;20271;-90
2023/10/07 09:29:15;;;;;;;6.85;3.38;;;17.30;83.70;;;;;;5056831;28;20401;-81
2023/10/07 09:31:43;;;;;;;9.48;4.03;;;17.40;84.80;;;;;;5054989;28;20099;-82
2023/10/07 09:34:11;;;;;;;9.02;3.50;;;17.40;85.30;;;;;;5060583;28;20502;-90
2023/10/07 09:36:46;;;;;;;7.95;3.90;;;17.30;84.60;;;;;;5059644;28;20020;-81
2023/10/07 09:41:39;;;;;;;8.68;4.45;;;17.40;88.10;;;;;;5060486;28;20025;-90
2023/10/07 09:44:26;;;;;;;7.68;4.15;;;17.40;85.80;;;;;;5054550;28;20466;-90
2023/10/07 09:46:52;;;;;;;6.53;4.25;;;17.40;86.30;;;;;;5061145;28;20367;-82
2023/10/07 09:49:25;;;;;;;8.07;4.13;;;17.50;86.90;;;;;;5053212;28;20121;-91
2023/10/07 09:52:02;;;;;;;8.80;4.40;;;17.50;83.70;;;;;;5057779;28;20124;-91
2023/10/07 09:55:06;;;;;;;6.85;3.60;;;17.50;83.30;;;;;;5066850;28;20552;-82
2023/10/07 09:57:55;;;;;;;9.95;4.10;;;17.60;85.50;;;;;;5066994;28;20586;-91
2023/10/07 10:03:30;;;;;;;8.82;4.03;;;17.60;84.80;;;;;;5066290;28;20032;-90
2023/10/07 10:06:09;;;;;;;13.20;4.03;;;17.50;85.00;;;;;;5071247;28;20009;-81
2023/10/07 10:08:57;;;;;;;8.13;4.05;;;17.50;85.60;;;;;;5062757;28;20021;-90
2023/10/07 10:16:57;;;;;;;6.60;3.53;;;17.50;86.30;;;;;;5060536;28;20029;-81
2023/10/07 10:19:47;;;;;;;7.05;3.80;;;17.50;85.30;;;;;;5066521;28;20024;-91
2023/10/07 10:22:22;;;;;;;8.32;4.18;;;17.50;87.90;;;;;;5066146;28;20025;-82
2023/10/07 10:24:54;;;;;;;10.93;4.47;;;17.40;86.40;;;;;;5068698;28;20023;-89
2023/10/07 10:27:20;;;;;;;;;;;17.40;86.30;;;;;;5067435;28;20028;-82
2023/10/07 10:29:55;;;;;;;7.07;3.75;;;17.40;86.80;;;;;;5070137;28;19905;-90
2023/10/07 10:32:31;;;;;;;7.20;3.85;;;17.50;87.60;;;;;;5068549;28;20068;-82
2023/10/07 10:35:03;;;;;;;5.65;3.30;;;17.40;87.70;;;;;;5066891;28;20032;-89
2023/10/07 10:37:30;;;;;;;8.48;4.82;;;17.40;88.30;;;;;;5070314;28;20027;-82
2023/10/07 10:39:57;;;;;;;7.53;3.55;;;17.40;87.40;;;;;;5071161;28;20040;-82
2023/10/07 10:42:24;;;;;;;10.25;5.00;;;17.40;89.20;;;;;;5071187;28;20025;-82
2023/10/07 10:44:52;;;;;;;8.50;4.75;;;17.40;89.30;;;;;;5069550;28;20395;-90
2023/10/07 10:47:18;;;;;;;6.45;3.97;;;17.30;88.80;;;;;;5044348;28;20029;-90
2023/10/07 10:49:45;;;;;;;7.68;3.90;;;17.30;88.00;;;;;;5052670;28;20493;-81
2023/10/07 10:52:12;;;;;;;9.15;4.60;;;17.30;90.80;;;;;;5051842;28;20483;-90
2023/10/07 10:54:41;;;;;;;10.18;4.78;;;17.30;86.90;;;;;;5051079;28;20021;-90
2023/10/07 10:57:09;;;;;;;7.90;3.97;;;17.30;84.70;;;;;;5052180;28;20029;-86
2023/10/07 10:59:42;;;;;;;6.30;3.78;;;17.30;85.80;;;;;;5056106;28;20025;-90
2023/10/07 11:02:12;;;;;;;7.53;4.90;;;17.30;86.00;;;;;;5054808;28;20028;-89
2023/10/07 11:04:38;;;;;;;6.40;4.30;;;17.30;85.80;;;;;;5057355;28;20019;-88
2023/10/07 11:07:07;;;;;;;6.57;4.05;;;17.40;86.40;;;;;;5060962;28;20056;-81
2023/10/07 11:09:37;;;;;;;7.68;4.43;;;17.40;85.80;;;;;;5057295;28;20078;-89
2023/10/07 11:12:09;;;;;;;8.10;4.50;;;17.40;85.30;;;;;;5055051;28;20041;-81
2023/10/07 11:14:36;;;;;;;7.82;4.28;;;17.50;87.50;;;;;;5056407;28;20024;-82
2023/10/07 11:17:03;;;;;;;8.13;4.70;;;17.40;85.40;;;;;;5050417;28;20390;-89
2023/10/07 11:19:30;;;;;;;11.23;4.65;;;17.50;85.90;;;;;;5063233;28;20025;-81
2023/10/07 11:21:56;;;;;;;8.57;4.40;;;17.50;86.90;;;;;;5064496;28;20091;-90
2023/10/07 11:24:24;;;;;;;8.10;4.30;;;17.50;85.30;;;;;;5053590;28;20021;-90
2023/10/07 11:26:51;;;;;;;6.97;4.40;;;17.60;84.30;;;;;;5054698;28;20432;-89
2023/10/07 11:29:18;;;;;;;9.75;4.47;;;17.60;85.10;;;;;;5055509;28;20013;-82
2023/10/07 11:31:46;;;;;;;9.88;4.18;;;17.50;83.00;;;;;;5055389;28;20025;-89
2023/10/07 11:34:13;;;;;;;6.32;4.35;;;17.40;83.00;;;;;;5060216;28;20470;-81
2023/10/07 11:36:46;;;;;;;13.65;4.88;;;17.50;83.60;;;;;;5066037;28;20017;-90
2023/10/07 11:39:15;;;;;;;8.32;4.35;;;17.40;83.60;;;;;;5067460;28;20047;-83
2023/10/07 11:41:44;;;;;;;10.70;4.63;;;17.50;84.70;;;;;;5065052;28;20104;-89
2023/10/07 11:44:15;;;;;;;9.48;4.50;;;17.50;83.70;;;;;;5065354;28;20826;-81
2023/10/07 11:46:41;;;;;;;11.07;4.85;;;17.50;85.30;;;;;;5065752;28;20576;-89
2023/10/07 11:49:08;;;;;;;8.20;4.75;;;17.50;82.90;;;;;;5057371;28;20033;-90
2023/10/07 11:51:34;;;;;;;7.75;4.65;;;17.50;84.00;;;;;;5052834;28;20047;-90
2023/10/07 11:54:00;;;;;;;8.52;4.45;;;17.50;83.80;;;;;;5047185;28;20447;-82
2023/10/07 11:56:28;;;;;;;11.50;4.70;;;17.50;82.60;;;;;;5054755;28;20021;-80
2023/10/07 11:58:54;;;;;;;8.38;4.45;;;17.50;84.20;;;;;;5060844;28;20108;-89
2023/10/07 12:01:23;;;;;;;9.50;4.10;;;17.50;83.30;;;;;;5053174;28;20092;-89
2023/10/07 12:03:48;;;;;;;8.52;4.65;;;17.50;83.90;;;;;;5054590;28;20031;-81
2023/10/07 12:06:15;;;;;;;11.32;4.75;;;17.50;84.10;;;;;;5053188;28;20021;-81
2023/10/07 12:08:41;;;;;;;7.18;4.40;;;17.50;84.70;;;;;;5052592;28;20079;-89
2023/10/07 12:11:08;;;;;;;8.45;4.63;;;17.50;85.40;;;;;;5053704;28;20037;-89
2023/10/07 12:13:35;;;;;;;6.97;4.43;;;17.50;84.90;;;;;;5054560;28;20025;-89
2023/10/07 12:16:01;;;;;;;8.13;4.78;;;17.40;85.30;;;;;;5058867;28;20017;-89
2023/10/07 12:18:26;;;;;;;8.25;4.55;;;17.50;85.70;;;;;;5054897;28;20032;-81
2023/10/07 12:21:00;;;;;;;8.55;5.03;;;17.50;85.10;;;;;;5054575;28;20029;-80
2023/10/07 12:23:27;;;;;;;25.17;15.50;;;17.50;86.10;;;;;;5053808;28;20464;-89
2023/10/07 12:25:53;;;;;;;75.07;38.95;;;17.50;86.50;;;;;;5064646;28;20026;-80
2023/10/07 12:28:18;;;;;;;71.50;36.50;;;17.50;86.30;;;;;;5053914;28;20028;-89
2023/10/07 12:30:44;;;;;;;88.40;48.90;;;17.60;87.10;;;;;;5052925;28;20029;-81
2023/10/07 12:33:10;;;;;;;40.95;21.58;;;17.50;86.70;;;;;;5056625;28;20039;-81
2023/10/07 12:35:36;;;;;;;64.45;36.05;;;17.50;86.40;;;;;;5054126;28;20379;-89
2023/10/07 12:38:02;;;;;;;98.20;51.33;;;17.60;86.90;;;;;;5053027;28;20042;-80
2023/10/07 12:40:30;;;;;;;128.35;61.97;;;17.60;87.50;;;;;;5053600;28;20461;-86
2023/10/07 12:42:59;;;;;;;121.53;57.30;;;17.60;87.10;;;;;;5076133;28;20052;-88
2023/10/07 12:45:25;;;;;;;212.10;96.15;;;17.60;86.60;;;;;;5039835;28;20025;-81
2023/10/07 12:47:55;;;;;;;219.43;100.20;;;17.60;87.20;;;;;;5054801;28;20027;-80
2023/10/07 12:50:26;;;;;;;121.43;54.00;;;17.60;88.10;;;;;;5059577;28;20095;-81
2023/10/07 12:52:57;;;;;;;261.73;115.87;;;17.60;87.00;;;;;;5055996;28;20106;-89
2023/10/07 12:55:31;;;;;;;95.93;34.22;;;17.60;87.90;;;;;;5040757;28;20021;-81
2023/10/07 12:57:57;;;;;;;48.72;16.77;;;17.60;88.90;;;;;;5054578;28;20128;-89
2023/10/07 13:00:22;;;;;;;59.25;22.23;;;17.60;88.90;;;;;;5066279;28;20518;-80
2023/10/07 13:02:53;;;;;;;66.57;32.72;;;17.50;87.60;;;;;;5058664;28;20021;-88
2023/10/07 13:05:19;;;;;;;101.60;48.50;;;17.50;88.10;;;;;;5044302;28;20017;-89
2023/10/07 13:07:49;;;;;;;56.25;20.88;;;17.50;89.70;;;;;;5052512;28;20500;-89
2023/10/07 13:10:18;;;;;;;36.60;13.65;;;17.50;89.00;;;;;;5054875;28;20367;-81
2023/10/07 13:12:45;;;;;;;29.77;10.77;;;17.50;88.90;;;;;;5059793;28;20093;-89
2023/10/07 13:15:18;;;;;;;29.67;11.63;;;17.50;89.30;;;;;;5055534;28;20029;-90
2023/10/07 13:17:47;;;;;;;93.00;43.72;;;17.50;88.30;;;;;;5057719;28;20017;-81
2023/10/07 13:20:20;;;;;;;59.50;26.10;;;17.50;88.10;;;;;;5050229;28;20029;-90
2023/10/07 13:23:00;;;;;;;114.28;44.15;;;17.50;88.10;;;;;;5048828;28;20029;-81
2023/10/07 13:25:26;;;;;;;19.92;8.90;;;17.50;89.40;;;;;;5054571;28;20030;-89
2023/10/07 13:27:55;;;;;;;31.17;11.48;;;17.50;88.80;;;;;;5051613;28;20040;-80
2023/10/07 13:30:24;;;;;;;18.90;8.13;;;17.50;88.20;;;;;;5058284;28;20112;-80
2023/10/07 13:32:52;;;;;;;31.75;14.25;;;17.50;86.70;;;;;;5052730;28;20116;-88
2023/10/07 13:35:19;;;;;;;41.58;19.30;;;17.60;86.00;;;;;;5058279;28;20492;-88
2023/10/07 13:37:51;;;;;;;80.32;40.70;;;17.50;86.40;;;;;;5075379;28;20021;-80
2023/10/07 13:40:19;;;;;;;66.65;24.48;;;17.50;87.50;;;;;;5058639;28;20048;-80
2023/10/07 13:42:49;;;;;;;34.28;14.15;;;17.50;88.60;;;;;;5062968;28;20461;-80
2023/10/07 13:45:23;;;;;;;27.45;11.30;;;17.40;88.20;;;;;;5059789;28;20675;-89